createdAt,value
2022-11-24T00:01:31.296Z,95331.50
2022-11-24T00:04:03.226Z,95343.69
2022-11-24T00:06:31.139Z,95330.28
2022-11-24T00:08:58.453Z,95355.59
2022-11-24T00:11:28.710Z,95363.94
2022-11-24T00:13:56.173Z,95347.75
2022-11-24T00:16:25.830Z,95375.81
2022-11-24T00:18:54.751Z,95382.59
2022-11-24T00:21:21.890Z,95376.13
2022-11-24T00:23:49.655Z,95350.38
2022-11-24T00:26:30.775Z,95343.59
2022-11-24T00:29:00.688Z,95376.66
2022-11-24T00:31:28.892Z,95379.75
2022-11-24T00:33:57.862Z,95374.84
2022-11-24T00:36:27.173Z,95384.81
2022-11-24T00:38:55.880Z,95359.81
2022-11-24T00:41:23.895Z,95391.06
2022-11-24T00:43:51.131Z,95380.47
2022-11-24T00:46:18.253Z,95369.09
2022-11-24T00:48:45.646Z,95392.78
2022-11-24T00:51:14.330Z,95362.56
2022-11-24T00:53:41.739Z,95394.66
2022-11-24T00:56:09.891Z,95372.78
2022-11-24T00:58:37.546Z,95400.88
2022-11-24T01:01:12.798Z,95400.28
2022-11-24T01:03:39.814Z,95405.56
2022-11-24T01:06:21.499Z,95418.75
2022-11-24T01:08:48.636Z,95415.19
2022-11-24T01:11:17.414Z,95420.25
2022-11-24T01:13:46.322Z,95433.31
2022-11-24T01:16:42.385Z,95434.03
2022-11-24T01:19:09.128Z,95431.81
2022-11-24T01:21:35.734Z,95426.94
2022-11-24T01:24:02.446Z,95425.28
2022-11-24T01:26:29.048Z,95387.06
2022-11-24T01:28:57.903Z,95433.72
2022-11-24T01:31:26.008Z,95436.25
2022-11-24T01:33:52.991Z,95413.63
2022-11-24T01:36:20.012Z,95433.66
2022-11-24T01:38:46.738Z,95440.88
2022-11-24T01:41:19.670Z,95449.53
2022-11-24T01:43:46.578Z,95434.31
2022-11-24T01:46:19.410Z,95449.06
2022-11-24T01:49:02.807Z,95446.00
2022-11-24T01:51:33.587Z,95429.34
2022-11-24T01:54:11.345Z,95464.88
2022-11-24T01:56:42.113Z,95422.94
2022-11-24T01:59:12.202Z,95447.91
2022-11-24T02:01:38.958Z,95438.31
2022-11-24T02:04:10.774Z,95447.84
2022-11-24T02:06:40.147Z,95465.72
2022-11-24T02:09:25.332Z,95479.69
2022-11-24T02:11:54.158Z,95475.72
2022-11-24T02:14:22.310Z,95470.44
2022-11-24T02:16:50.429Z,95456.91
2022-11-24T02:19:41.740Z,95476.00
2022-11-24T02:22:25.684Z,95449.16
2022-11-24T02:24:59.748Z,95465.50
2022-11-24T02:27:26.381Z,95444.53
2022-11-24T02:29:52.975Z,95464.28
2022-11-24T02:32:20.535Z,95466.28
2022-11-24T02:34:47.102Z,95464.44
2022-11-24T02:37:13.734Z,95442.56
2022-11-24T02:39:40.302Z,95473.25
2022-11-24T02:42:12.952Z,95447.47
2022-11-24T02:44:46.067Z,95434.72
2022-11-24T02:47:13.380Z,95480.53
2022-11-24T02:49:40.366Z,95459.28
2022-11-24T02:52:07.786Z,95488.75
2022-11-24T02:54:34.943Z,95455.31
2022-11-24T02:57:01.921Z,95448.47
2022-11-24T02:59:28.590Z,95480.69
2022-11-24T03:01:55.287Z,95488.09
2022-11-24T03:04:21.905Z,95449.16
2022-11-24T03:06:48.941Z,95470.00
2022-11-24T03:09:15.591Z,95460.75
2022-11-24T03:11:42.249Z,95504.06
2022-11-24T03:14:09.099Z,95507.50
2022-11-24T03:16:35.951Z,95458.59
2022-11-24T03:19:03.560Z,95515.03
2022-11-24T03:21:30.347Z,95506.75
2022-11-24T03:23:56.992Z,95510.00
2022-11-24T03:26:24.946Z,95517.78
2022-11-24T03:28:56.182Z,95517.06
2022-11-24T03:31:24.138Z,95524.16
2022-11-24T03:33:51.182Z,95535.88
2022-11-24T03:36:18.079Z,95519.41
2022-11-24T03:38:44.948Z,95541.50
2022-11-24T03:41:11.708Z,95498.13
2022-11-24T03:43:43.503Z,95518.63
2022-11-24T03:46:11.842Z,95529.88
2022-11-24T03:48:38.904Z,95530.41
2022-11-24T03:51:05.796Z,95543.69
2022-11-24T03:53:33.652Z,95528.41
2022-11-24T03:56:01.972Z,95540.59
2022-11-24T03:58:29.002Z,95511.81
2022-11-24T04:00:56.300Z,95544.25
2022-11-24T04:03:23.752Z,95509.22
2022-11-24T04:05:50.391Z,95511.72
2022-11-24T04:08:17.921Z,95517.09
2022-11-24T04:10:44.505Z,95538.75
2022-11-24T04:13:16.525Z,95494.84
2022-11-24T04:15:43.955Z,95524.53
2022-11-24T04:18:12.119Z,95544.88
2022-11-24T04:20:39.559Z,95538.53
2022-11-24T04:23:06.456Z,95533.34
2022-11-24T04:25:33.613Z,95555.03
2022-11-24T04:28:00.256Z,95518.34
2022-11-24T04:30:29.200Z,95554.19
2022-11-24T04:32:57.106Z,95566.16
2022-11-24T04:35:24.421Z,95548.97
2022-11-24T04:37:51.036Z,95552.81
2022-11-24T04:40:18.167Z,95520.63
2022-11-24T04:42:52.871Z,95558.63
2022-11-24T04:45:19.441Z,95546.81
2022-11-24T04:47:46.036Z,95535.59
2022-11-24T04:50:12.595Z,95559.69
2022-11-24T04:52:39.288Z,95579.22
2022-11-24T04:55:06.340Z,95581.66
2022-11-24T04:57:32.946Z,95586.50
2022-11-24T04:59:59.600Z,95576.19
2022-11-24T05:02:26.384Z,95601.53
2022-11-24T05:04:52.982Z,95571.03
2022-11-24T05:07:19.771Z,95597.09
2022-11-24T05:10:05.384Z,95602.47
2022-11-24T05:12:32.180Z,95622.06
2022-11-24T05:14:59.507Z,95626.22
2022-11-24T05:17:35.467Z,95627.47
2022-11-24T05:20:02.532Z,95600.19
2022-11-24T05:22:29.981Z,95595.88
2022-11-24T05:24:56.542Z,95620.38
2022-11-24T05:27:23.885Z,95630.41
2022-11-24T05:29:50.420Z,95630.06
2022-11-24T05:32:16.992Z,95628.41
2022-11-24T05:34:43.671Z,95643.34
2022-11-24T05:37:10.341Z,95647.81
2022-11-24T05:39:37.114Z,95621.00
2022-11-24T05:42:25.966Z,95621.44
2022-11-24T05:44:53.005Z,95619.75
2022-11-24T05:47:20.400Z,95648.59
2022-11-24T05:49:47.736Z,95649.03
2022-11-24T05:52:14.420Z,95624.84
2022-11-24T05:54:41.050Z,95630.41
2022-11-24T05:57:07.712Z,95640.41
2022-11-24T05:59:34.468Z,95648.59
2022-11-24T06:02:01.163Z,95642.28
2022-11-24T06:04:28.197Z,95673.56
2022-11-24T06:06:54.821Z,95647.50
2022-11-24T06:09:21.490Z,95643.81
2022-11-24T06:11:49.003Z,95683.28
2022-11-24T06:14:15.592Z,95676.50
2022-11-24T06:16:42.264Z,95691.78
2022-11-24T06:19:10.865Z,95670.78
2022-11-24T06:21:37.784Z,95689.31
2022-11-24T06:24:05.051Z,95674.66
2022-11-24T06:26:31.723Z,95706.41
2022-11-24T06:28:58.353Z,95673.41
2022-11-24T06:31:24.940Z,95691.28
2022-11-24T06:33:51.619Z,95699.31
2022-11-24T06:36:18.173Z,95700.41
2022-11-24T06:38:45.059Z,95712.75
2022-11-24T06:41:14.086Z,95729.56
2022-11-24T06:43:41.035Z,95721.69
2022-11-24T06:46:07.965Z,95720.59
2022-11-24T06:48:34.714Z,95688.53
2022-11-24T06:51:02.972Z,95729.41
2022-11-24T06:53:37.673Z,95721.53
2022-11-24T06:56:15.638Z,95734.63
2022-11-24T06:58:45.333Z,95725.25
2022-11-24T07:01:22.770Z,95735.13
2022-11-24T07:03:50.344Z,95734.50
2022-11-24T07:06:18.527Z,95736.66
2022-11-24T07:08:45.881Z,95739.13
2022-11-24T07:11:15.672Z,95732.16
2022-11-24T07:13:43.574Z,95744.06
2022-11-24T07:16:22.619Z,95727.38
2022-11-24T07:18:54.175Z,95733.88
2022-11-24T07:21:22.717Z,95732.47
2022-11-24T07:23:50.907Z,95740.97
2022-11-24T07:26:18.122Z,95745.00
2022-11-24T07:28:45.064Z,95634.22
2022-11-24T07:31:14.578Z,95754.69
2022-11-24T07:33:42.262Z,95730.00
2022-11-24T07:36:09.396Z,95720.28
2022-11-24T07:38:36.349Z,95760.72
2022-11-24T07:41:09.553Z,95748.84
2022-11-24T07:43:37.526Z,95773.06
2022-11-24T07:46:06.489Z,95777.53
2022-11-24T07:48:34.138Z,95747.44
2022-11-24T07:51:02.482Z,95779.84
2022-11-24T07:53:29.320Z,95759.28
2022-11-24T07:55:59.819Z,95784.91
2022-11-24T07:58:32.405Z,95771.97
2022-11-24T08:01:00.254Z,95774.91
2022-11-24T08:03:26.996Z,95745.16
2022-11-24T08:08:49.558Z,95750.19
2022-11-24T08:11:18.012Z,95787.44
2022-11-24T08:13:44.774Z,95762.75
2022-11-24T08:16:14.977Z,95765.03
2022-11-24T08:18:42.445Z,95751.34
2022-11-24T08:21:13.180Z,95787.13
2022-11-24T08:23:40.280Z,95792.84
2022-11-24T08:26:10.682Z,95802.09
2022-11-24T08:28:38.249Z,95793.75
2022-11-24T08:31:13.795Z,95791.41
2022-11-24T08:33:40.900Z,95805.16
2022-11-24T08:36:13.728Z,95803.00
2022-11-24T08:38:41.298Z,95769.81
2022-11-24T08:41:11.120Z,95779.22
2022-11-24T08:43:38.217Z,95797.75
2022-11-24T08:46:09.750Z,95802.38
2022-11-24T08:48:36.847Z,95792.38
2022-11-24T08:51:09.112Z,95765.94
2022-11-24T08:53:35.857Z,95770.91
2022-11-24T08:56:05.048Z,95747.88
2022-11-24T08:58:32.168Z,95745.72
2022-11-24T09:01:13.864Z,95795.00
2022-11-24T09:03:46.608Z,95786.91
2022-11-24T09:06:19.066Z,95788.47
2022-11-24T09:08:45.701Z,95764.84
2022-11-24T09:11:15.108Z,95780.47
2022-11-24T09:13:42.136Z,95763.34
2022-11-24T09:16:18.774Z,95796.69
2022-11-24T09:18:46.408Z,95772.00
2022-11-24T09:21:14.424Z,95756.25
2022-11-24T09:23:41.838Z,95806.25
2022-11-24T09:26:09.822Z,95815.81
2022-11-24T09:28:36.749Z,95816.13
2022-11-24T09:31:09.303Z,95802.25
2022-11-24T09:33:37.330Z,95821.25
2022-11-24T09:36:04.938Z,95813.69
2022-11-24T09:38:31.809Z,95798.41
2022-11-24T09:41:32.712Z,95798.22
2022-11-24T09:44:18.434Z,95823.91
2022-11-24T09:46:54.166Z,95824.22
2022-11-24T09:49:36.778Z,95812.44
2022-11-24T09:52:11.041Z,95809.97
2022-11-24T09:54:44.944Z,95814.44
2022-11-24T09:57:13.093Z,95820.63
2022-11-24T09:59:41.192Z,95826.16
2022-11-24T10:02:13.237Z,95837.28
2022-11-24T10:04:43.210Z,95809.16
2022-11-24T10:07:26.145Z,95846.22
2022-11-24T10:10:24.292Z,95840.69
2022-11-24T10:13:30.133Z,95846.69
2022-11-24T10:16:33.975Z,95849.16
2022-11-24T10:19:13.088Z,95814.41
2022-11-24T10:22:24.007Z,95852.25
2022-11-24T10:25:18.929Z,95842.22
2022-11-24T10:27:52.496Z,95861.56
2022-11-24T10:30:24.043Z,95813.34
2022-11-24T10:33:30.565Z,95809.94
2022-11-24T10:36:16.874Z,95837.75
2022-11-24T10:39:05.489Z,95819.69
2022-11-24T10:41:52.570Z,95840.69
2022-11-24T10:44:19.291Z,95801.63
2022-11-24T10:46:46.027Z,95804.53
2022-11-24T10:49:33.721Z,95825.88
2022-11-24T10:52:01.405Z,95854.31
2022-11-24T10:54:28.461Z,95850.84
2022-11-24T10:56:55.504Z,95841.28
2022-11-24T10:59:29.027Z,95845.63
2022-11-24T11:01:56.212Z,95832.94
2022-11-24T11:04:43.252Z,95851.03
2022-11-24T11:07:22.019Z,95845.16
2022-11-24T11:09:49.293Z,95818.59
2022-11-24T11:12:44.696Z,95855.66
2022-11-24T11:15:28.693Z,95835.53
2022-11-24T11:18:00.206Z,95857.19
2022-11-24T11:20:32.737Z,95850.53
2022-11-24T11:23:04.651Z,95849.44
2022-11-24T11:25:33.986Z,95857.50
2022-11-24T11:28:23.133Z,95818.56
2022-11-24T11:31:22.091Z,95822.91
2022-11-24T11:34:21.857Z,95857.97
2022-11-24T11:36:54.135Z,95828.00
2022-11-24T11:39:25.078Z,95865.06
2022-11-24T11:42:00.305Z,95872.81
2022-11-24T11:44:39.907Z,95868.03
2022-11-24T11:47:29.942Z,95871.91
2022-11-24T11:49:57.549Z,95836.81
2022-11-24T11:52:50.457Z,95876.22
2022-11-24T11:55:46.591Z,95876.31
2022-11-24T11:58:37.639Z,95875.56
2022-11-24T12:01:26.362Z,95887.78
2022-11-24T12:04:01.625Z,95814.84
2022-11-24T12:06:36.327Z,95853.16
2022-11-24T12:09:32.640Z,95879.41
2022-11-24T12:12:17.534Z,95897.00
2022-11-24T12:15:10.732Z,95888.47
2022-11-24T12:17:45.279Z,95888.03
2022-11-24T12:20:27.521Z,95884.50
2022-11-24T12:23:33.031Z,95876.28
2022-11-24T12:26:36.789Z,95905.06
2022-11-24T12:29:24.020Z,95904.47
2022-11-24T12:32:22.287Z,95910.13
2022-11-24T12:35:27.957Z,95903.53
2022-11-24T12:38:27.031Z,95900.84
2022-11-24T12:41:39.613Z,95908.56
2022-11-24T12:44:00.951Z,95913.03
2022-11-24T12:47:21.846Z,95915.97
2022-11-24T12:49:54.982Z,95907.19
2022-11-24T12:52:30.850Z,95905.31
2022-11-24T12:54:58.814Z,95893.72
2022-11-24T12:57:47.730Z,95877.03
2022-11-24T13:00:32.069Z,95893.06
2022-11-24T13:03:05.000Z,95909.78
2022-11-24T13:05:43.957Z,95910.22
2022-11-24T13:08:11.103Z,95849.97
2022-11-24T13:10:55.836Z,95879.19
2022-11-24T13:13:28.374Z,95869.59
2022-11-24T13:16:34.648Z,95918.28
2022-11-24T13:19:04.366Z,95909.66
2022-11-24T13:21:48.158Z,95870.53
2022-11-24T13:24:18.853Z,95924.75
2022-11-24T13:26:49.374Z,95919.31
2022-11-24T13:29:28.536Z,95925.50
2022-11-24T13:32:15.516Z,95906.00
2022-11-24T13:34:45.825Z,95925.81
2022-11-24T13:37:28.852Z,95926.59
2022-11-24T13:40:13.610Z,95931.22
2022-11-24T13:43:12.769Z,95925.53
2022-11-24T13:45:39.566Z,95931.72
2022-11-24T13:48:22.604Z,95935.34
2022-11-24T13:50:49.549Z,95942.59
2022-11-24T13:53:28.285Z,95916.28
2022-11-24T13:55:59.272Z,95944.78
2022-11-24T13:58:39.544Z,95947.41
2022-11-24T14:01:15.321Z,95947.53
2022-11-24T14:04:07.117Z,95944.47
2022-11-24T14:06:40.207Z,95921.53
2022-11-24T14:09:20.259Z,95962.38
2022-11-24T14:12:01.709Z,95916.72
2022-11-24T14:14:28.455Z,95912.09
2022-11-24T14:17:07.409Z,95971.59
2022-11-24T14:19:34.240Z,95917.75
2022-11-24T14:22:00.908Z,95964.06
2022-11-24T14:24:33.559Z,95965.41
2022-11-24T14:27:03.451Z,95980.09
2022-11-24T14:29:33.138Z,95960.09
2022-11-24T14:32:03.461Z,95967.56
2022-11-24T14:34:31.643Z,95985.81
2022-11-24T14:37:00.501Z,95973.06
2022-11-24T14:39:27.954Z,95993.69
2022-11-24T14:42:10.042Z,96001.22
2022-11-24T14:45:02.994Z,96002.00
2022-11-24T14:47:32.646Z,95980.25
2022-11-24T14:50:22.077Z,96007.47
2022-11-24T14:52:56.847Z,96015.16
2022-11-24T14:55:35.290Z,95989.69
2022-11-24T14:58:01.922Z,95987.00
2022-11-24T15:00:33.031Z,95998.72
2022-11-24T15:03:02.634Z,96009.06
2022-11-24T15:05:52.909Z,96006.13
2022-11-24T15:08:20.132Z,95839.75
2022-11-24T15:10:47.026Z,95984.31
2022-11-24T15:13:19.404Z,95988.47
2022-11-24T15:16:02.450Z,96002.28
2022-11-24T15:18:55.026Z,96035.84
2022-11-24T15:21:36.042Z,96036.56
2022-11-24T15:24:17.119Z,96032.81
2022-11-24T15:26:44.860Z,96044.81
2022-11-24T15:29:12.432Z,96058.25
2022-11-24T15:31:40.406Z,96042.00
2022-11-24T15:34:09.416Z,96053.69
2022-11-24T15:36:36.047Z,96007.84
2022-11-24T15:39:02.883Z,96042.50
2022-11-24T15:41:31.674Z,96051.47
2022-11-24T15:43:59.408Z,96060.72
2022-11-24T15:46:30.979Z,95995.06
2022-11-24T15:48:58.025Z,96034.50
2022-11-24T15:51:26.764Z,96037.41
2022-11-24T15:54:00.998Z,96044.81
2022-11-24T15:56:36.942Z,96066.13
2022-11-24T15:59:04.234Z,96036.50
2022-11-24T16:01:33.049Z,96061.34
2022-11-24T16:04:00.642Z,96068.88
2022-11-24T16:06:27.262Z,96054.91
2022-11-24T16:08:54.703Z,96057.06
2022-11-24T16:11:22.233Z,96087.78
2022-11-24T16:13:53.056Z,96060.06
2022-11-24T16:16:22.025Z,96077.09
2022-11-24T16:18:48.935Z,96099.13
2022-11-24T16:21:15.633Z,96089.28
2022-11-24T16:23:42.462Z,96040.16
2022-11-24T16:26:10.064Z,96088.59
2022-11-24T16:28:36.750Z,96094.38
2022-11-24T16:31:03.448Z,96056.72
2022-11-24T16:33:30.472Z,96078.13
2022-11-24T16:35:57.100Z,96098.25
2022-11-24T16:38:23.752Z,96070.91
2022-11-24T16:40:52.475Z,96042.47
2022-11-24T16:43:19.282Z,96109.56
2022-11-24T16:45:46.400Z,96113.84
2022-11-24T16:48:13.070Z,96116.69
2022-11-24T16:50:39.763Z,96109.66
2022-11-24T16:53:06.372Z,96100.34
2022-11-24T16:55:33.005Z,96076.03
2022-11-24T16:57:59.631Z,96079.03
2022-11-24T17:00:26.250Z,96080.66
2022-11-24T17:02:52.948Z,96112.94
2022-11-24T17:05:19.663Z,96128.16
2022-11-24T17:07:46.364Z,96053.09
2022-11-24T17:10:12.999Z,96125.94
2022-11-24T17:12:40.865Z,96111.78
2022-11-24T17:15:31.749Z,96093.13
2022-11-24T17:18:22.963Z,96117.72
2022-11-24T17:20:40.953Z,96127.03
2022-11-24T17:23:07.542Z,96112.50
2022-11-24T17:25:34.133Z,96100.47
2022-11-24T17:28:00.780Z,96103.06
2022-11-24T17:30:27.456Z,96115.47
2022-11-24T17:32:56.982Z,96121.63
2022-11-24T17:35:23.804Z,96106.13
2022-11-24T17:37:50.501Z,96102.72
2022-11-24T17:40:34.346Z,96113.75
2022-11-24T17:43:01.469Z,96112.50
2022-11-24T17:45:29.477Z,96137.56
2022-11-24T17:47:59.034Z,96135.94
2022-11-24T17:50:26.578Z,96144.97
2022-11-24T17:52:54.202Z,96141.59
2022-11-24T17:55:21.341Z,96141.06
2022-11-24T17:57:48.104Z,96148.91
2022-11-24T18:00:15.243Z,96150.47
2022-11-24T18:02:42.098Z,96128.69
2022-11-24T18:05:09.175Z,96139.47
2022-11-24T18:07:36.754Z,96159.75
2022-11-24T18:10:04.011Z,96144.03
2022-11-24T18:12:30.627Z,96088.66
2022-11-24T18:14:57.236Z,96158.50
2022-11-24T18:17:23.877Z,96135.06
2022-11-24T18:19:50.527Z,96103.06
2022-11-24T18:22:17.656Z,96128.41
2022-11-24T18:24:45.762Z,96147.19
2022-11-24T18:27:13.653Z,96138.28
2022-11-24T18:29:40.266Z,96126.56
2022-11-24T18:32:07.016Z,96154.66
2022-11-24T18:34:34.174Z,96146.53
2022-11-24T18:37:00.974Z,96165.03
2022-11-24T18:39:29.586Z,96160.84
2022-11-24T18:41:56.179Z,96155.41
2022-11-24T18:44:22.787Z,96188.16
2022-11-24T18:46:49.605Z,96169.97
2022-11-24T18:49:16.239Z,96128.63
2022-11-24T18:51:43.624Z,96175.34
2022-11-24T18:54:10.401Z,96162.84
2022-11-24T18:56:37.436Z,96146.19
2022-11-24T18:59:04.095Z,96171.09
2022-11-24T19:01:31.189Z,96161.81
2022-11-24T19:04:00.590Z,96095.09
2022-11-24T19:06:35.840Z,96174.69
2022-11-24T19:09:15.143Z,96155.78
2022-11-24T19:11:44.244Z,96155.44
2022-11-24T19:14:13.515Z,96179.91
2022-11-24T19:16:40.933Z,96175.16
2022-11-24T19:19:08.665Z,96157.81
2022-11-24T19:21:37.520Z,96165.13
2022-11-24T19:24:10.111Z,96120.06
2022-11-24T19:26:38.516Z,96176.53
2022-11-24T19:29:06.760Z,96175.38
2022-11-24T19:31:34.640Z,96153.09
2022-11-24T19:34:03.225Z,96181.78
2022-11-24T19:36:30.516Z,96132.00
2022-11-24T19:38:58.433Z,96186.56
2022-11-24T19:41:28.470Z,96189.75
2022-11-24T19:43:55.693Z,96154.03
2022-11-24T19:46:27.099Z,96178.00
2022-11-24T19:48:56.164Z,96184.75
2022-11-24T19:51:30.674Z,96147.31
2022-11-24T19:53:57.894Z,96189.13
2022-11-24T19:56:29.512Z,96174.09
2022-11-24T19:58:56.733Z,96192.56
2022-11-24T20:01:43.755Z,96141.81
2022-11-24T20:04:13.517Z,96201.75
2022-11-24T20:06:43.660Z,96163.19
2022-11-24T20:09:12.070Z,96178.00
2022-11-24T20:11:39.723Z,96202.47
2022-11-24T20:14:07.844Z,96163.31
2022-11-24T20:16:35.178Z,96189.44
2022-11-24T20:19:07.442Z,96208.75
2022-11-24T20:21:36.967Z,96207.03
2022-11-24T20:24:06.726Z,96209.03
2022-11-24T20:26:36.793Z,96171.66
2022-11-24T20:29:04.598Z,96210.88
2022-11-24T20:31:34.454Z,96201.78
2022-11-24T20:34:02.822Z,96205.50
2022-11-24T20:36:31.696Z,96212.22
2022-11-24T20:39:01.051Z,96207.50
2022-11-24T20:41:31.824Z,96214.97
2022-11-24T20:44:01.346Z,96220.66
2022-11-24T20:46:31.237Z,96220.09
2022-11-24T20:48:58.710Z,96218.94
2022-11-24T20:51:30.635Z,96204.88
2022-11-24T20:54:01.340Z,96223.09
2022-11-24T20:56:30.666Z,96191.66
2022-11-24T20:58:58.277Z,96218.06
2022-11-24T21:01:30.754Z,96203.25
2022-11-24T21:03:59.262Z,96209.81
2022-11-24T21:06:27.983Z,96219.13
2022-11-24T21:09:00.448Z,96215.97
2022-11-24T21:11:30.467Z,96178.63
2022-11-24T21:13:57.473Z,96226.56
2022-11-24T21:16:25.726Z,96209.34
2022-11-24T21:18:55.451Z,96225.78
2022-11-24T21:21:23.849Z,96220.47
2022-11-24T21:23:50.806Z,96215.03
2022-11-24T21:26:19.307Z,96224.59
2022-11-24T21:28:47.355Z,96231.88
2022-11-24T21:31:17.135Z,96224.03
2022-11-24T21:33:48.966Z,96228.66
2022-11-24T21:36:17.835Z,96214.84
2022-11-24T21:38:49.273Z,96223.09
2022-11-24T21:41:15.926Z,96227.25
2022-11-24T21:43:42.533Z,96198.50
2022-11-24T21:46:11.182Z,96192.00
2022-11-24T21:48:39.052Z,96204.22
2022-11-24T21:51:08.389Z,96229.81
2022-11-24T21:53:36.564Z,96197.94
2022-11-24T21:56:06.390Z,96219.63
2022-11-24T21:58:34.067Z,96207.50
2022-11-24T22:01:02.927Z,96228.00
2022-11-24T22:03:29.779Z,96195.91
2022-11-24T22:06:02.804Z,96224.44
2022-11-24T22:08:30.467Z,96217.69
2022-11-24T22:11:05.989Z,96226.53
2022-11-24T22:13:33.177Z,96214.88
2022-11-24T22:16:08.346Z,96205.56
2022-11-24T22:18:40.997Z,96214.97
2022-11-24T22:21:10.790Z,96203.84
2022-11-24T22:23:37.633Z,96219.88
2022-11-24T22:26:06.761Z,96234.41
2022-11-24T22:28:35.455Z,96237.31
2022-11-24T22:31:20.444Z,96224.59
2022-11-24T22:33:47.922Z,96230.03
2022-11-24T22:36:16.432Z,96227.16
2022-11-24T22:38:43.602Z,96229.94
2022-11-24T22:41:16.189Z,96223.72
2022-11-24T22:43:44.216Z,96235.38
2022-11-24T22:46:15.561Z,96243.28
2022-11-24T22:48:43.284Z,96224.38
2022-11-24T22:51:15.958Z,96245.81
2022-11-24T22:53:48.509Z,96221.75
2022-11-24T22:56:16.081Z,96244.34
2022-11-24T22:58:43.218Z,96239.97
2022-11-24T23:01:15.554Z,96232.97
2022-11-24T23:03:42.855Z,96220.66
2022-11-24T23:06:18.067Z,96235.75
2022-11-24T23:08:45.103Z,96185.44
2022-11-24T23:11:15.062Z,96246.09
2022-11-24T23:13:42.241Z,96213.63
2022-11-24T23:16:17.434Z,96232.78
2022-11-24T23:18:48.790Z,96233.47
2022-11-24T23:21:19.153Z,96239.19
2022-11-24T23:23:46.623Z,96250.34
2022-11-24T23:26:17.849Z,96212.06
2022-11-24T23:28:45.044Z,96227.63
2022-11-24T23:31:17.445Z,96216.22
2022-11-24T23:33:44.214Z,96223.09
2022-11-24T23:36:16.592Z,96227.03
2022-11-24T23:38:44.059Z,96239.84
2022-11-24T23:41:17.484Z,96218.75
2022-11-24T23:43:44.530Z,96222.66
2022-11-24T23:46:13.634Z,96203.19
2022-11-24T23:48:41.070Z,96217.41
2022-11-24T23:51:13.711Z,96193.25
2022-11-24T23:53:41.445Z,96218.16
2022-11-24T23:56:09.207Z,96186.34
2022-11-24T23:58:35.818Z,96193.47
